sensor_id;sensor_type;location;lat;lon;timestamp;pressure;altitude;pressure_sealevel;temperature
68911;BMP180;55953;51.650;-0.522;2022-09-01T00:00:16;101343.00;;;15.60
68911;BMP180;55953;51.650;-0.522;2022-09-01T00:03:01;101332.80;;;15.52
68911;BMP180;55953;51.650;-0.522;2022-09-01T00:05:29;101333.40;;;15.50
68911;BMP180;55953;51.650;-0.522;2022-09-01T00:07:59;101331.20;;;15.50
68911;BMP180;55953;51.650;-0.522;2022-09-01T00:10:28;101332.60;;;15.50
68911;BMP180;55953;51.650;-0.522;2022-09-01T00:12:56;101327.40;;;15.50
68911;BMP180;55953;51.650;-0.522;2022-09-01T00:15:25;101325.00;;;15.50
68911;BMP180;55953;51.650;-0.522;2022-09-01T00:17:53;101324.40;;;15.50
68911;BMP180;55953;51.650;-0.522;2022-09-01T00:20:21;101319.80;;;15.50
68911;BMP180;55953;51.650;-0.522;2022-09-01T00:22:48;101321.60;;;15.50
68911;BMP180;55953;51.650;-0.522;2022-09-01T00:25:18;101313.00;;;15.48
68911;BMP180;55953;51.650;-0.522;2022-09-01T00:27:48;101315.80;;;15.50
68911;BMP180;55953;51.650;-0.522;2022-09-01T00:30:17;101315.20;;;15.40
68911;BMP180;55953;51.650;-0.522;2022-09-01T00:32:45;101316.80;;;15.40
68911;BMP180;55953;51.650;-0.522;2022-09-01T00:35:16;101311.00;;;15.40
68911;BMP180;55953;51.650;-0.522;2022-09-01T00:37:44;101306.40;;;15.40
68911;BMP180;55953;51.650;-0.522;2022-09-01T00:40:15;101308.40;;;15.40
68911;BMP180;55953;51.650;-0.522;2022-09-01T00:42:43;101310.40;;;15.40
68911;BMP180;55953;51.650;-0.522;2022-09-01T00:45:11;101307.00;;;15.40
68911;BMP180;55953;51.650;-0.522;2022-09-01T00:47:40;101304.40;;;15.40
68911;BMP180;55953;51.650;-0.522;2022-09-01T00:50:11;101299.80;;;15.40
68911;BMP180;55953;51.650;-0.522;2022-09-01T00:52:51;101297.40;;;15.40
68911;BMP180;55953;51.650;-0.522;2022-09-01T00:55:29;101294.40;;;15.30
68911;BMP180;55953;51.650;-0.522;2022-09-01T00:58:01;101296.20;;;15.30
68911;BMP180;55953;51.650;-0.522;2022-09-01T01:00:35;101295.40;;;15.32
68911;BMP180;55953;51.650;-0.522;2022-09-01T01:03:11;101296.40;;;15.30
68911;BMP180;55953;51.650;-0.522;2022-09-01T01:05:43;101289.80;;;15.30
68911;BMP180;55953;51.650;-0.522;2022-09-01T01:08:27;101291.60;;;15.30
68911;BMP180;55953;51.650;-0.522;2022-09-01T01:11:09;101291.60;;;15.30
68911;BMP180;55953;51.650;-0.522;2022-09-01T01:13:55;101293.80;;;15.30
68911;BMP180;55953;51.650;-0.522;2022-09-01T01:16:27;101292.80;;;15.30
68911;BMP180;55953;51.650;-0.522;2022-09-01T01:18:56;101286.20;;;15.20
68911;BMP180;55953;51.650;-0.522;2022-09-01T01:21:33;101286.80;;;15.26
68911;BMP180;55953;51.650;-0.522;2022-09-01T01:24:32;101287.40;;;15.30
68911;BMP180;55953;51.650;-0.522;2022-09-01T01:27:00;101282.40;;;15.30
68911;BMP180;55953;51.650;-0.522;2022-09-01T01:29:35;101274.40;;;15.30
68911;BMP180;55953;51.650;-0.522;2022-09-01T01:32:06;101270.60;;;15.30
68911;BMP180;55953;51.650;-0.522;2022-09-01T01:34:39;101271.80;;;15.30
68911;BMP180;55953;51.650;-0.522;2022-09-01T01:37:09;101267.80;;;15.30
68911;BMP180;55953;51.650;-0.522;2022-09-01T01:39:37;101266.20;;;15.30
68911;BMP180;55953;51.650;-0.522;2022-09-01T01:42:08;101264.80;;;15.30
68911;BMP180;55953;51.650;-0.522;2022-09-01T01:44:37;101257.00;;;15.30
68911;BMP180;55953;51.650;-0.522;2022-09-01T01:47:12;101257.00;;;15.30
68911;BMP180;55953;51.650;-0.522;2022-09-01T01:49:40;101253.80;;;15.30
68911;BMP180;55953;51.650;-0.522;2022-09-01T01:52:12;101252.60;;;15.28
68911;BMP180;55953;51.650;-0.522;2022-09-01T01:54:46;101249.60;;;15.30
68911;BMP180;55953;51.650;-0.522;2022-09-01T01:57:14;101245.40;;;15.30
68911;BMP180;55953;51.650;-0.522;2022-09-01T01:59:44;101249.20;;;15.26
68911;BMP180;55953;51.650;-0.522;2022-09-01T02:02:12;101241.60;;;15.22
68911;BMP180;55953;51.650;-0.522;2022-09-01T02:04:40;101252.60;;;15.30
68911;BMP180;55953;51.650;-0.522;2022-09-01T02:07:11;101247.00;;;15.30
68911;BMP180;55953;51.650;-0.522;2022-09-01T02:09:40;101246.40;;;15.22
68911;BMP180;55953;51.650;-0.522;2022-09-01T02:12:15;101249.40;;;15.20
68911;BMP180;55953;51.650;-0.522;2022-09-01T02:14:46;101246.60;;;15.20
68911;BMP180;55953;51.650;-0.522;2022-09-01T02:17:16;101249.20;;;15.20
68911;BMP180;55953;51.650;-0.522;2022-09-01T02:19:43;101245.80;;;15.20
68911;BMP180;55953;51.650;-0.522;2022-09-01T02:22:13;101247.80;;;15.20
68911;BMP180;55953;51.650;-0.522;2022-09-01T02:24:41;101243.40;;;15.20
68911;BMP180;55953;51.650;-0.522;2022-09-01T02:27:15;101246.80;;;15.22
68911;BMP180;55953;51.650;-0.522;2022-09-01T02:29:52;101249.20;;;15.26
68911;BMP180;55953;51.650;-0.522;2022-09-01T02:32:22;101243.40;;;15.30
68911;BMP180;55953;51.650;-0.522;2022-09-01T02:34:51;101241.20;;;15.30
68911;BMP180;55953;51.650;-0.522;2022-09-01T02:37:20;101239.20;;;15.30
68911;BMP180;55953;51.650;-0.522;2022-09-01T02:39:52;101237.00;;;15.30
68911;BMP180;55953;51.650;-0.522;2022-09-01T02:42:19;101231.60;;;15.30
68911;BMP180;55953;51.650;-0.522;2022-09-01T02:44:55;101233.40;;;15.30
68911;BMP180;55953;51.650;-0.522;2022-09-01T02:47:23;101238.20;;;15.30
68911;BMP180;55953;51.650;-0.522;2022-09-01T02:49:56;101235.80;;;15.28
68911;BMP180;55953;51.650;-0.522;2022-09-01T02:52:26;101239.20;;;15.20
68911;BMP180;55953;51.650;-0.522;2022-09-01T02:54:56;101232.20;;;15.20
68911;BMP180;55953;51.650;-0.522;2022-09-01T02:57:25;101229.00;;;15.20
68911;BMP180;55953;51.650;-0.522;2022-09-01T02:59:54;101228.40;;;15.20
68911;BMP180;55953;51.650;-0.522;2022-09-01T03:02:25;101230.60;;;15.20
68911;BMP180;55953;51.650;-0.522;2022-09-01T03:04:55;101224.60;;;15.20
68911;BMP180;55953;51.650;-0.522;2022-09-01T03:07:24;101227.80;;;15.20
68911;BMP180;55953;51.650;-0.522;2022-09-01T03:09:52;101227.20;;;15.20
68911;BMP180;55953;51.650;-0.522;2022-09-01T03:12:20;101216.00;;;15.20
68911;BMP180;55953;51.650;-0.522;2022-09-01T03:14:47;101217.20;;;15.20
68911;BMP180;55953;51.650;-0.522;2022-09-01T03:17:15;101219.60;;;15.20
68911;BMP180;55953;51.650;-0.522;2022-09-01T03:19:43;101214.80;;;15.26
68911;BMP180;55953;51.650;-0.522;2022-09-01T03:22:13;101216.20;;;15.30
68911;BMP180;55953;51.650;-0.522;2022-09-01T03:24:40;101212.20;;;15.30
68911;BMP180;55953;51.650;-0.522;2022-09-01T03:27:08;101208.60;;;15.30
68911;BMP180;55953;51.650;-0.522;2022-09-01T03:29:38;101205.80;;;15.40
68911;BMP180;55953;51.650;-0.522;2022-09-01T03:32:07;101202.00;;;15.40
68911;BMP180;55953;51.650;-0.522;2022-09-01T03:34:35;101202.40;;;15.42
68911;BMP180;55953;51.650;-0.522;2022-09-01T03:37:03;101200.40;;;15.50
68911;BMP180;55953;51.650;-0.522;2022-09-01T03:39:34;101204.60;;;15.50
68911;BMP180;55953;51.650;-0.522;2022-09-01T03:42:03;101198.80;;;15.50
68911;BMP180;55953;51.650;-0.522;2022-09-01T03:44:32;101195.00;;;15.60
68911;BMP180;55953;51.650;-0.522;2022-09-01T03:47:01;101190.80;;;15.60
68911;BMP180;55953;51.650;-0.522;2022-09-01T03:49:29;101188.00;;;15.60
68911;BMP180;55953;51.650;-0.522;2022-09-01T03:51:57;101187.80;;;15.60
68911;BMP180;55953;51.650;-0.522;2022-09-01T03:54:25;101184.20;;;15.60
68911;BMP180;55953;51.650;-0.522;2022-09-01T03:56:56;101188.20;;;15.70
68911;BMP180;55953;51.650;-0.522;2022-09-01T03:59:26;101181.00;;;15.70
68911;BMP180;55953;51.650;-0.522;2022-09-01T04:01:58;101178.00;;;15.80
68911;BMP180;55953;51.650;-0.522;2022-09-01T04:04:28;101184.80;;;15.80
68911;BMP180;55953;51.650;-0.522;2022-09-01T04:06:59;101174.80;;;15.90
68911;BMP180;55953;51.650;-0.522;2022-09-01T04:09:32;101170.00;;;16.00
68911;BMP180;55953;51.650;-0.522;2022-09-01T04:12:00;101169.80;;;16.10
68911;BMP180;55953;51.650;-0.522;2022-09-01T04:14:30;101170.00;;;16.20
68911;BMP180;55953;51.650;-0.522;2022-09-01T04:16:57;101166.60;;;16.20
68911;BMP180;55953;51.650;-0.522;2022-09-01T04:19:44;101167.60;;;16.30
68911;BMP180;55953;51.650;-0.522;2022-09-01T04:22:12;101166.20;;;16.34
68911;BMP180;55953;51.650;-0.522;2022-09-01T04:24:43;101159.20;;;16.40
68911;BMP180;55953;51.650;-0.522;2022-09-01T04:27:14;101161.40;;;16.40
68911;BMP180;55953;51.650;-0.522;2022-09-01T04:29:44;101152.60;;;16.40
68911;BMP180;55953;51.650;-0.522;2022-09-01T04:32:13;101150.80;;;16.40
68911;BMP180;55953;51.650;-0.522;2022-09-01T04:34:47;101149.40;;;16.46
68911;BMP180;55953;51.650;-0.522;2022-09-01T04:37:20;101148.40;;;16.50
68911;BMP180;55953;51.650;-0.522;2022-09-01T04:40:01;101151.20;;;16.50
68911;BMP180;55953;51.650;-0.522;2022-09-01T04:42:31;101153.60;;;16.48
68911;BMP180;55953;51.650;-0.522;2022-09-01T04:45:02;101150.00;;;16.44
68911;BMP180;55953;51.650;-0.522;2022-09-01T04:47:41;101156.80;;;16.46
68911;BMP180;55953;51.650;-0.522;2022-09-01T04:50:14;101153.20;;;16.50
68911;BMP180;55953;51.650;-0.522;2022-09-01T04:53:05;101150.60;;;16.48
68911;BMP180;55953;51.650;-0.522;2022-09-01T04:55:45;101156.20;;;16.50
68911;BMP180;55953;51.650;-0.522;2022-09-01T04:58:18;101150.40;;;16.50
68911;BMP180;55953;51.650;-0.522;2022-09-01T05:00:48;101151.20;;;16.50
68911;BMP180;55953;51.650;-0.522;2022-09-01T05:03:19;101149.00;;;16.50
68911;BMP180;55953;51.650;-0.522;2022-09-01T05:05:56;101150.60;;;16.50
68911;BMP180;55953;51.650;-0.522;2022-09-01T05:08:28;101152.00;;;16.50
68911;BMP180;55953;51.650;-0.522;2022-09-01T05:11:03;101147.20;;;16.50
68911;BMP180;55953;51.650;-0.522;2022-09-01T05:13:39;101150.80;;;16.50
68911;BMP180;55953;51.650;-0.522;2022-09-01T05:16:09;101153.00;;;16.50
68911;BMP180;55953;51.650;-0.522;2022-09-01T05:18:46;101149.00;;;16.50
68911;BMP180;55953;51.650;-0.522;2022-09-01T05:21:19;101151.60;;;16.50
68911;BMP180;55953;51.650;-0.522;2022-09-01T05:23:49;101151.00;;;16.50
68911;BMP180;55953;51.650;-0.522;2022-09-01T05:26:37;101150.00;;;16.50
68911;BMP180;55953;51.650;-0.522;2022-09-01T05:29:08;101149.60;;;16.50
68911;BMP180;55953;51.650;-0.522;2022-09-01T05:31:47;101149.20;;;16.50
68911;BMP180;55953;51.650;-0.522;2022-09-01T05:34:17;101149.00;;;16.50
68911;BMP180;55953;51.650;-0.522;2022-09-01T05:36:57;101150.60;;;16.50
68911;BMP180;55953;51.650;-0.522;2022-09-01T05:39:27;101145.20;;;16.50
68911;BMP180;55953;51.650;-0.522;2022-09-01T05:41:55;101140.20;;;16.50
68911;BMP180;55953;51.650;-0.522;2022-09-01T05:44:24;101143.20;;;16.50
68911;BMP180;55953;51.650;-0.522;2022-09-01T05:46:58;101143.00;;;16.50
68911;BMP180;55953;51.650;-0.522;2022-09-01T05:49:28;101141.20;;;16.50
68911;BMP180;55953;51.650;-0.522;2022-09-01T05:52:02;101141.20;;;16.50
68911;BMP180;55953;51.650;-0.522;2022-09-01T05:54:31;101138.00;;;16.50
68911;BMP180;55953;51.650;-0.522;2022-09-01T05:56:59;101143.60;;;16.56
68911;BMP180;55953;51.650;-0.522;2022-09-01T05:59:48;101140.20;;;16.60
68911;BMP180;55953;51.650;-0.522;2022-09-01T06:02:23;101141.80;;;16.60
68911;BMP180;55953;51.650;-0.522;2022-09-01T06:04:54;101142.80;;;16.60
68911;BMP180;55953;51.650;-0.522;2022-09-01T06:07:27;101148.00;;;16.60
68911;BMP180;55953;51.650;-0.522;2022-09-01T06:09:55;101146.00;;;16.64
68911;BMP180;55953;51.650;-0.522;2022-09-01T06:12:23;101142.80;;;16.70
68911;BMP180;55953;51.650;-0.522;2022-09-01T06:14:53;101145.60;;;16.70
68911;BMP180;55953;51.650;-0.522;2022-09-01T06:17:25;101144.80;;;16.70
68911;BMP180;55953;51.650;-0.522;2022-09-01T06:19:56;101141.60;;;16.70
68911;BMP180;55953;51.650;-0.522;2022-09-01T06:22:27;101143.20;;;16.70
68911;BMP180;55953;51.650;-0.522;2022-09-01T06:24:56;101142.00;;;16.78
68911;BMP180;55953;51.650;-0.522;2022-09-01T06:27:33;101136.40;;;16.80
68911;BMP180;55953;51.650;-0.522;2022-09-01T06:30:06;101136.20;;;16.80
68911;BMP180;55953;51.650;-0.522;2022-09-01T06:32:46;101128.60;;;16.80
68911;BMP180;55953;51.650;-0.522;2022-09-01T06:35:17;101132.20;;;16.84
68911;BMP180;55953;51.650;-0.522;2022-09-01T06:37:46;101126.60;;;16.90
68911;BMP180;55953;51.650;-0.522;2022-09-01T06:40:31;101129.60;;;16.90
68911;BMP180;55953;51.650;-0.522;2022-09-01T06:42:59;101130.80;;;17.00
68911;BMP180;55953;51.650;-0.522;2022-09-01T06:45:43;101124.60;;;17.06
68911;BMP180;55953;51.650;-0.522;2022-09-01T06:48:11;101124.40;;;17.10
68911;BMP180;55953;51.650;-0.522;2022-09-01T06:50:42;101125.80;;;17.14
68911;BMP180;55953;51.650;-0.522;2022-09-01T06:53:32;101124.00;;;17.20
68911;BMP180;55953;51.650;-0.522;2022-09-01T06:56:03;101129.40;;;17.20
68911;BMP180;55953;51.650;-0.522;2022-09-01T06:58:31;101123.60;;;17.20
68911;BMP180;55953;51.650;-0.522;2022-09-01T07:01:06;101130.80;;;17.30
68911;BMP180;55953;51.650;-0.522;2022-09-01T07:03:35;101125.20;;;17.34
68911;BMP180;55953;51.650;-0.522;2022-09-01T07:06:14;101126.20;;;17.42
68911;BMP180;55953;51.650;-0.522;2022-09-01T07:09:22;101123.60;;;17.56
68911;BMP180;55953;51.650;-0.522;2022-09-01T07:12:40;101126.60;;;17.60
68911;BMP180;55953;51.650;-0.522;2022-09-01T07:15:39;101132.40;;;17.70
68911;BMP180;55953;51.650;-0.522;2022-09-01T07:18:29;101129.60;;;17.82
68911;BMP180;55953;51.650;-0.522;2022-09-01T07:20:58;101130.20;;;17.90
68911;BMP180;55953;51.650;-0.522;2022-09-01T07:23:48;101131.80;;;18.00
68911;BMP180;55953;51.650;-0.522;2022-09-01T07:26:38;101133.80;;;18.10
68911;BMP180;55953;51.650;-0.522;2022-09-01T07:29:15;101129.60;;;18.10
68911;BMP180;55953;51.650;-0.522;2022-09-01T07:31:44;101130.80;;;18.20
68911;BMP180;55953;51.650;-0.522;2022-09-01T07:34:16;101132.80;;;18.30
68911;BMP180;55953;51.650;-0.522;2022-09-01T07:37:05;101131.40;;;18.30
68911;BMP180;55953;51.650;-0.522;2022-09-01T07:39:53;101130.60;;;18.40
68911;BMP180;55953;51.650;-0.522;2022-09-01T07:42:32;101138.00;;;18.50
68911;BMP180;55953;51.650;-0.522;2022-09-01T07:45:44;101137.80;;;18.60
68911;BMP180;55953;51.650;-0.522;2022-09-01T07:48:27;101135.20;;;18.70
68911;BMP180;55953;51.650;-0.522;2022-09-01T07:51:17;101137.00;;;18.80
68911;BMP180;55953;51.650;-0.522;2022-09-01T07:54:04;101142.80;;;18.90
68911;BMP180;55953;51.650;-0.522;2022-09-01T07:56:33;101140.80;;;19.00
68911;BMP180;55953;51.650;-0.522;2022-09-01T07:59:07;101141.40;;;19.08
68911;BMP180;55953;51.650;-0.522;2022-09-01T08:01:48;101133.80;;;19.10
68911;BMP180;55953;51.650;-0.522;2022-09-01T08:04:17;101134.80;;;19.10
68911;BMP180;55953;51.650;-0.522;2022-09-01T08:06:49;101133.80;;;19.20
68911;BMP180;55953;51.650;-0.522;2022-09-01T08:09:17;101136.60;;;19.30
68911;BMP180;55953;51.650;-0.522;2022-09-01T08:12:06;101144.00;;;19.50
68911;BMP180;55953;51.650;-0.522;2022-09-01T08:14:38;101145.60;;;19.58
68911;BMP180;55953;51.650;-0.522;2022-09-01T08:17:06;101146.40;;;19.70
68911;BMP180;55953;51.650;-0.522;2022-09-01T08:19:57;101147.20;;;19.70
68911;BMP180;55953;51.650;-0.522;2022-09-01T08:22:52;101151.00;;;19.70
68911;BMP180;55953;51.650;-0.522;2022-09-01T08:25:23;101155.80;;;19.80
68911;BMP180;55953;51.650;-0.522;2022-09-01T08:27:54;101149.60;;;19.90
68911;BMP180;55953;51.650;-0.522;2022-09-01T08:30:31;101152.00;;;20.10
68911;BMP180;55953;51.650;-0.522;2022-09-01T08:33:00;101153.00;;;20.30
68911;BMP180;55953;51.650;-0.522;2022-09-01T08:35:47;101147.40;;;20.40
68911;BMP180;55953;51.650;-0.522;2022-09-01T08:38:17;101151.80;;;20.52
68911;BMP180;55953;51.650;-0.522;2022-09-01T08:40:53;101146.00;;;20.60
68911;BMP180;55953;51.650;-0.522;2022-09-01T08:46:31;101141.60;;;20.80
68911;BMP180;55953;51.650;-0.522;2022-09-01T08:49:18;101139.00;;;20.80
68911;BMP180;55953;51.650;-0.522;2022-09-01T08:52:34;101136.80;;;20.90
68911;BMP180;55953;51.650;-0.522;2022-09-01T08:57:55;101139.80;;;21.00
68911;BMP180;55953;51.650;-0.522;2022-09-01T09:00:37;101139.80;;;21.00
68911;BMP180;55953;51.650;-0.522;2022-09-01T09:06:34;101140.40;;;21.10
68911;BMP180;55953;51.650;-0.522;2022-09-01T09:09:07;101142.00;;;21.14
68911;BMP180;55953;51.650;-0.522;2022-09-01T09:17:04;101140.40;;;21.30
68911;BMP180;55953;51.650;-0.522;2022-09-01T09:19:41;101143.20;;;21.30
68911;BMP180;55953;51.650;-0.522;2022-09-01T09:22:16;101138.00;;;21.20
68911;BMP180;55953;51.650;-0.522;2022-09-01T09:24:52;101142.80;;;21.20
68911;BMP180;55953;51.650;-0.522;2022-09-01T09:27:30;101140.00;;;21.20
68911;BMP180;55953;51.650;-0.522;2022-09-01T09:30:05;101129.20;;;21.30
68911;BMP180;55953;51.650;-0.522;2022-09-01T09:32:58;101124.00;;;21.40
68911;BMP180;55953;51.650;-0.522;2022-09-01T09:35:47;101122.20;;;21.60
68911;BMP180;55953;51.650;-0.522;2022-09-01T09:38:22;101121.60;;;21.70
68911;BMP180;55953;51.650;-0.522;2022-09-01T09:41:17;101121.00;;;21.80
68911;BMP180;55953;51.650;-0.522;2022-09-01T09:46:50;101121.60;;;22.10
68911;BMP180;55953;51.650;-0.522;2022-09-01T09:49:31;101115.00;;;22.20
68911;BMP180;55953;51.650;-0.522;2022-09-01T09:55:04;101109.60;;;22.40
68911;BMP180;55953;51.650;-0.522;2022-09-01T09:57:38;101108.00;;;22.42
68911;BMP180;55953;51.650;-0.522;2022-09-01T10:03:01;101111.80;;;22.60
68911;BMP180;55953;51.650;-0.522;2022-09-01T10:05:48;101112.20;;;22.70
68911;BMP180;55953;51.650;-0.522;2022-09-01T10:11:01;101104.80;;;22.80
68911;BMP180;55953;51.650;-0.522;2022-09-01T10:13:31;101102.40;;;22.80
68911;BMP180;55953;51.650;-0.522;2022-09-01T10:16:10;101101.40;;;22.80
68911;BMP180;55953;51.650;-0.522;2022-09-01T10:18:49;101097.40;;;22.80
68911;BMP180;55953;51.650;-0.522;2022-09-01T10:21:36;101094.20;;;22.90
68911;BMP180;55953;51.650;-0.522;2022-09-01T10:24:31;101086.00;;;23.00
68911;BMP180;55953;51.650;-0.522;2022-09-01T10:27:12;101089.60;;;23.10
68911;BMP180;55953;51.650;-0.522;2022-09-01T10:29:50;101093.00;;;23.08
68911;BMP180;55953;51.650;-0.522;2022-09-01T10:33:04;101090.20;;;23.10
68911;BMP180;55953;51.650;-0.522;2022-09-01T10:35:50;101085.80;;;23.04
68911;BMP180;55953;51.650;-0.522;2022-09-01T10:38:26;101083.60;;;22.96
68911;BMP180;55953;51.650;-0.522;2022-09-01T10:40:56;101082.80;;;22.90
68911;BMP180;55953;51.650;-0.522;2022-09-01T10:43:46;101084.20;;;22.80
68911;BMP180;55953;51.650;-0.522;2022-09-01T10:51:57;101085.60;;;22.80
68911;BMP180;55953;51.650;-0.522;2022-09-01T10:57:24;101079.00;;;23.00
68911;BMP180;55953;51.650;-0.522;2022-09-01T11:06:07;101080.00;;;23.00
68911;BMP180;55953;51.650;-0.522;2022-09-01T11:09:00;101072.40;;;23.00
68911;BMP180;55953;51.650;-0.522;2022-09-01T11:11:46;101072.40;;;23.00
68911;BMP180;55953;51.650;-0.522;2022-09-01T11:14:24;101075.20;;;23.02
68911;BMP180;55953;51.650;-0.522;2022-09-01T11:17:30;101074.80;;;23.10
68911;BMP180;55953;51.650;-0.522;2022-09-01T11:20:35;101068.20;;;23.10
68911;BMP180;55953;51.650;-0.522;2022-09-01T11:26:59;101067.40;;;22.90
68911;BMP180;55953;51.650;-0.522;2022-09-01T11:29:02;101070.00;;;22.80
68911;BMP180;55953;51.650;-0.522;2022-09-01T11:31:39;101074.60;;;22.70
68911;BMP180;55953;51.650;-0.522;2022-09-01T11:34:20;101070.60;;;22.60
68911;BMP180;55953;51.650;-0.522;2022-09-01T11:36:57;101068.80;;;22.50
68911;BMP180;55953;51.650;-0.522;2022-09-01T11:39:39;101064.80;;;22.50
68911;BMP180;55953;51.650;-0.522;2022-09-01T11:45:02;101061.20;;;22.38
68911;BMP180;55953;51.650;-0.522;2022-09-01T11:47:37;101054.00;;;22.30
68911;BMP180;55953;51.650;-0.522;2022-09-01T11:50:31;101058.00;;;22.20
68911;BMP180;55953;51.650;-0.522;2022-09-01T11:53:04;101050.80;;;22.20
68911;BMP180;55953;51.650;-0.522;2022-09-01T11:55:43;101049.80;;;22.26
68911;BMP180;55953;51.650;-0.522;2022-09-01T11:58:33;101054.20;;;22.30
68911;BMP180;55953;51.650;-0.522;2022-09-01T12:03:42;101050.80;;;22.50
68911;BMP180;55953;51.650;-0.522;2022-09-01T12:06:22;101049.20;;;22.58
68911;BMP180;55953;51.650;-0.522;2022-09-01T12:08:58;101045.20;;;22.64
68911;BMP180;55953;51.650;-0.522;2022-09-01T12:11:32;101049.60;;;22.70
68911;BMP180;55953;51.650;-0.522;2022-09-01T12:14:10;101047.60;;;22.80
68911;BMP180;55953;51.650;-0.522;2022-09-01T12:16:39;101048.80;;;22.80
68911;BMP180;55953;51.650;-0.522;2022-09-01T12:19:23;101049.00;;;22.76
68911;BMP180;55953;51.650;-0.522;2022-09-01T12:22:16;101042.20;;;22.80
68911;BMP180;55953;51.650;-0.522;2022-09-01T12:24:51;101037.60;;;22.76
68911;BMP180;55953;51.650;-0.522;2022-09-01T12:27:21;101033.80;;;22.82
68911;BMP180;55953;51.650;-0.522;2022-09-01T12:29:51;101033.20;;;23.00
68911;BMP180;55953;51.650;-0.522;2022-09-01T12:32:20;101031.60;;;23.20
68911;BMP180;55953;51.650;-0.522;2022-09-01T12:35:01;101030.00;;;23.40
68911;BMP180;55953;51.650;-0.522;2022-09-01T12:37:37;101032.40;;;23.60
68911;BMP180;55953;51.650;-0.522;2022-09-01T12:40:26;101031.40;;;23.80
68911;BMP180;55953;51.650;-0.522;2022-09-01T12:42:57;101026.80;;;23.90
68911;BMP180;55953;51.650;-0.522;2022-09-01T12:45:45;101022.60;;;24.00
68911;BMP180;55953;51.650;-0.522;2022-09-01T12:48:29;101024.20;;;24.10
68911;BMP180;55953;51.650;-0.522;2022-09-01T12:53:55;101024.40;;;24.20
68911;BMP180;55953;51.650;-0.522;2022-09-01T12:56:37;101024.60;;;24.20
68911;BMP180;55953;51.650;-0.522;2022-09-01T12:59:13;101022.20;;;24.30
68911;BMP180;55953;51.650;-0.522;2022-09-01T13:01:45;101016.80;;;24.30
68911;BMP180;55953;51.650;-0.522;2022-09-01T13:04:27;101014.20;;;24.30
68911;BMP180;55953;51.650;-0.522;2022-09-01T13:07:03;101013.80;;;24.40
68911;BMP180;55953;51.650;-0.522;2022-09-01T13:09:32;101010.00;;;24.40
68911;BMP180;55953;51.650;-0.522;2022-09-01T13:12:11;101010.40;;;24.40
68911;BMP180;55953;51.650;-0.522;2022-09-01T13:14:42;101009.20;;;24.40
68911;BMP180;55953;51.650;-0.522;2022-09-01T13:17:10;101002.60;;;24.40
68911;BMP180;55953;51.650;-0.522;2022-09-01T13:19:41;101009.60;;;24.30
68911;BMP180;55953;51.650;-0.522;2022-09-01T13:22:09;101003.20;;;24.20
68911;BMP180;55953;51.650;-0.522;2022-09-01T13:24:37;100995.80;;;24.20
68911;BMP180;55953;51.650;-0.522;2022-09-01T13:27:06;100995.80;;;24.20
68911;BMP180;55953;51.650;-0.522;2022-09-01T13:29:50;100989.80;;;24.20
68911;BMP180;55953;51.650;-0.522;2022-09-01T13:32:20;100987.80;;;24.20
68911;BMP180;55953;51.650;-0.522;2022-09-01T13:34:51;100986.20;;;24.28
68911;BMP180;55953;51.650;-0.522;2022-09-01T13:37:20;100985.40;;;24.20
68911;BMP180;55953;51.650;-0.522;2022-09-01T13:39:49;100982.00;;;24.20
68911;BMP180;55953;51.650;-0.522;2022-09-01T13:42:18;100976.80;;;24.16
68911;BMP180;55953;51.650;-0.522;2022-09-01T13:44:46;100979.20;;;24.10
68911;BMP180;55953;51.650;-0.522;2022-09-01T13:47:18;100975.40;;;24.10
68911;BMP180;55953;51.650;-0.522;2022-09-01T13:50:09;100966.20;;;24.02
68911;BMP180;55953;51.650;-0.522;2022-09-01T13:52:51;100964.80;;;24.10
68911;BMP180;55953;51.650;-0.522;2022-09-01T13:55:28;100965.60;;;24.10
68911;BMP180;55953;51.650;-0.522;2022-09-01T13:57:57;100967.00;;;24.00
68911;BMP180;55953;51.650;-0.522;2022-09-01T14:00:30;100962.20;;;23.90
68911;BMP180;55953;51.650;-0.522;2022-09-01T14:03:04;100961.40;;;23.90
68911;BMP180;55953;51.650;-0.522;2022-09-01T14:05:38;100959.40;;;24.00
68911;BMP180;55953;51.650;-0.522;2022-09-01T14:08:08;100956.80;;;24.10
68911;BMP180;55953;51.650;-0.522;2022-09-01T14:10:43;100955.40;;;24.10
68911;BMP180;55953;51.650;-0.522;2022-09-01T14:13:11;100954.60;;;24.10
68911;BMP180;55953;51.650;-0.522;2022-09-01T14:15:39;100952.00;;;24.10
68911;BMP180;55953;51.650;-0.522;2022-09-01T14:18:07;100949.80;;;24.10
68911;BMP180;55953;51.650;-0.522;2022-09-01T14:20:38;100949.40;;;24.20
68911;BMP180;55953;51.650;-0.522;2022-09-01T14:23:08;100952.60;;;24.30
68911;BMP180;55953;51.650;-0.522;2022-09-01T14:25:44;100945.60;;;24.40
68911;BMP180;55953;51.650;-0.522;2022-09-01T14:28:13;100938.80;;;24.48
68911;BMP180;55953;51.650;-0.522;2022-09-01T14:30:47;100932.40;;;24.56
68911;BMP180;55953;51.650;-0.522;2022-09-01T14:33:17;100932.60;;;24.68
68911;BMP180;55953;51.650;-0.522;2022-09-01T14:35:47;100921.60;;;24.80
68911;BMP180;55953;51.650;-0.522;2022-09-01T14:38:15;100923.20;;;24.80
68911;BMP180;55953;51.650;-0.522;2022-09-01T14:40:46;100917.80;;;24.80
68911;BMP180;55953;51.650;-0.522;2022-09-01T14:43:14;100922.60;;;24.80
68911;BMP180;55953;51.650;-0.522;2022-09-01T14:45:44;100916.20;;;24.90
68911;BMP180;55953;51.650;-0.522;2022-09-01T14:48:17;100918.60;;;25.10
68911;BMP180;55953;51.650;-0.522;2022-09-01T14:50:47;100911.60;;;25.26
68911;BMP180;55953;51.650;-0.522;2022-09-01T14:53:17;100911.20;;;25.30
68911;BMP180;55953;51.650;-0.522;2022-09-01T14:55:45;100908.60;;;25.40
68911;BMP180;55953;51.650;-0.522;2022-09-01T14:58:16;100910.00;;;25.42
68911;BMP180;55953;51.650;-0.522;2022-09-01T15:00:44;100907.00;;;25.54
68911;BMP180;55953;51.650;-0.522;2022-09-01T15:03:13;100908.40;;;25.70
68911;BMP180;55953;51.650;-0.522;2022-09-01T15:05:47;100908.00;;;25.80
68911;BMP180;55953;51.650;-0.522;2022-09-01T15:08:20;100902.60;;;25.96
68911;BMP180;55953;51.650;-0.522;2022-09-01T15:10:48;100902.00;;;26.10
68911;BMP180;55953;51.650;-0.522;2022-09-01T15:13:16;100904.40;;;26.10
68911;BMP180;55953;51.650;-0.522;2022-09-01T15:15:45;100908.40;;;26.20
68911;BMP180;55953;51.650;-0.522;2022-09-01T15:18:13;100907.20;;;26.20